createdAt,value
2024-04-16T11:33:50.806Z,51.09
2024-04-16T11:34:01.168Z,51.09
2024-04-16T11:34:11.542Z,50.99
2024-04-16T11:34:21.791Z,50.99
2024-04-16T11:34:32.046Z,51.09
2024-04-16T11:34:42.424Z,51.09
2024-04-16T11:34:52.831Z,51.09
2024-04-16T11:35:03.152Z,51.09
2024-04-16T11:35:13.427Z,51.09
2024-04-16T11:35:23.568Z,51.09
2024-04-16T11:35:33.863Z,51.09
2024-04-16T11:35:44.129Z,51.09
2024-04-16T11:35:54.401Z,51.09
2024-04-16T11:36:04.665Z,50.99
2024-04-16T11:36:14.946Z,50.99
2024-04-16T11:36:25.266Z,50.99
2024-04-16T11:36:35.537Z,50.99
2024-04-16T11:36:45.814Z,50.89
2024-04-16T11:36:56.085Z,50.89
2024-04-16T11:37:06.408Z,50.89
2024-04-16T11:37:16.758Z,50.89
2024-04-16T11:37:27.070Z,50.89
2024-04-16T11:37:38.796Z,50.79
2024-04-16T11:37:47.692Z,50.79
2024-04-16T11:37:57.981Z,50.79
2024-04-16T11:38:08.271Z,50.79
2024-04-16T11:38:18.560Z,50.79
2024-04-16T11:38:28.820Z,50.68
2024-04-16T11:38:39.086Z,50.68
2024-04-16T11:38:49.362Z,50.68
2024-04-16T11:38:59.694Z,50.68
2024-04-16T11:39:09.996Z,50.68
2024-04-16T11:39:20.283Z,50.68
2024-04-16T11:39:30.562Z,50.68
2024-04-16T11:39:40.826Z,50.68
2024-04-16T11:39:51.121Z,50.68
2024-04-16T11:40:01.397Z,50.68
2024-04-16T11:40:11.702Z,50.68
2024-04-16T11:40:22.023Z,50.68
2024-04-16T11:40:32.299Z,50.68
2024-04-16T11:40:45.507Z,50.68
2024-04-16T11:41:01.269Z,50.68
2024-04-16T11:41:09.615Z,50.68
2024-04-16T11:41:14.457Z,50.68
2024-04-16T11:41:23.679Z,50.68
2024-04-16T11:41:33.990Z,50.68
2024-04-16T11:41:44.280Z,50.68
2024-04-16T11:41:54.598Z,50.59
2024-04-16T11:42:04.868Z,50.68
2024-04-16T11:42:15.133Z,50.59
2024-04-16T11:42:25.385Z,50.59
2024-04-16T11:42:35.654Z,50.59
2024-04-16T11:42:45.916Z,50.59
2024-04-16T11:42:56.170Z,50.59
2024-04-16T11:43:06.578Z,50.59
2024-04-16T11:43:16.703Z,50.59
2024-04-16T11:43:27.088Z,50.59
2024-04-16T11:43:37.645Z,50.68
2024-04-16T11:43:47.649Z,50.68
2024-04-16T11:43:57.927Z,50.68
2024-04-16T11:44:10.800Z,50.68
2024-04-16T11:44:18.444Z,50.68
2024-04-16T11:44:28.724Z,50.59
2024-04-16T11:44:38.977Z,50.59
2024-04-16T11:44:49.247Z,50.59
2024-04-16T11:44:59.512Z,50.59
2024-04-16T11:45:09.776Z,50.59
2024-04-16T11:45:20.055Z,50.59
2024-04-16T11:45:30.325Z,50.59
2024-04-16T11:45:40.595Z,50.59
2024-04-16T11:45:50.864Z,50.48
2024-04-16T11:46:01.128Z,50.59
2024-04-16T11:46:11.410Z,50.48
2024-04-16T11:46:21.757Z,50.48
2024-04-16T11:46:32.069Z,50.48
2024-04-16T11:46:42.434Z,50.48
2024-04-16T11:46:52.622Z,50.48
2024-04-16T11:47:02.964Z,50.48
2024-04-16T11:47:13.291Z,50.38
2024-04-16T11:47:23.638Z,50.38
2024-04-16T11:47:34.015Z,50.38
2024-04-16T11:47:44.454Z,50.38
2024-04-16T11:47:54.670Z,50.26
2024-04-16T11:48:04.996Z,50.26
2024-04-16T11:48:15.987Z,50.26
2024-04-16T11:48:25.534Z,50.26
2024-04-16T11:48:35.833Z,50.26
2024-04-16T11:48:46.100Z,50.16
2024-04-16T11:48:56.376Z,50.16
2024-04-16T11:49:06.649Z,50.16
2024-04-16T11:49:17.026Z,50.06
2024-04-16T11:49:27.403Z,50.06
2024-04-16T11:49:37.770Z,49.96
2024-04-16T11:49:48.079Z,49.86
2024-04-16T11:49:58.373Z,49.86
2024-04-16T11:50:11.894Z,49.86
2024-04-16T11:50:18.972Z,49.76
2024-04-16T11:50:29.243Z,49.76
2024-04-16T11:50:39.519Z,49.66
2024-04-16T11:50:49.846Z,49.66
2024-04-16T11:51:00.126Z,49.66
2024-04-16T11:51:10.391Z,49.63
2024-04-16T11:51:20.679Z,49.54
2024-04-16T11:51:30.957Z,49.54
2024-04-16T11:51:41.266Z,49.54
2024-04-16T11:51:51.562Z,49.54
2024-04-16T11:52:01.829Z,49.54
2024-04-16T11:52:12.118Z,49.54
2024-04-16T11:52:22.396Z,49.54
2024-04-16T11:52:32.709Z,49.43
2024-04-16T11:52:43.023Z,49.43
2024-04-16T11:52:53.339Z,49.43
2024-04-16T11:53:03.603Z,49.43
2024-04-16T11:53:13.872Z,49.43
2024-04-16T11:53:24.143Z,49.43
2024-04-16T11:53:34.399Z,49.33
2024-04-16T11:53:44.719Z,49.43
2024-04-16T11:53:54.990Z,49.33
2024-04-16T11:54:05.337Z,49.33
2024-04-16T11:54:15.619Z,49.33
2024-04-16T11:54:25.920Z,49.33
2024-04-16T11:54:36.306Z,49.33
2024-04-16T11:54:46.430Z,49.23
2024-04-16T11:54:56.711Z,49.23
2024-04-16T11:55:07.037Z,49.23
2024-04-16T11:55:17.383Z,49.23
2024-04-16T11:55:27.719Z,49.23
2024-04-16T11:55:38.082Z,49.23
2024-04-16T11:55:48.394Z,49.23
2024-04-16T11:55:58.687Z,49.21
2024-04-16T11:56:12.426Z,49.21
2024-04-16T11:56:19.225Z,49.21
2024-04-16T11:56:29.519Z,49.01
2024-04-16T11:56:39.800Z,48.83
2024-04-16T11:56:50.056Z,48.91
2024-04-16T11:57:00.317Z,48.91
2024-04-16T11:57:10.637Z,48.91
2024-04-16T11:57:20.902Z,49.01
2024-04-16T11:57:31.191Z,48.91
2024-04-16T11:57:41.442Z,48.81
2024-04-16T11:57:51.699Z,48.81
2024-04-16T11:58:01.962Z,48.91
2024-04-16T11:58:12.302Z,48.91
2024-04-16T11:58:22.787Z,48.91
2024-04-16T11:58:32.909Z,48.91
2024-04-16T11:58:43.541Z,48.91
2024-04-16T11:58:53.582Z,48.81
2024-04-16T11:59:03.870Z,48.81
2024-04-16T11:59:14.135Z,48.81
2024-04-16T11:59:24.443Z,48.81
2024-04-16T11:59:34.732Z,48.81
2024-04-16T11:59:44.985Z,48.81
2024-04-16T11:59:55.374Z,48.71
2024-04-16T12:00:05.634Z,48.71
2024-04-16T12:00:15.893Z,48.71
2024-04-16T12:00:26.142Z,48.71
2024-04-16T12:00:36.422Z,48.61
2024-04-16T12:00:46.736Z,48.61
2024-04-16T12:00:57.054Z,48.61
2024-04-16T12:01:07.359Z,48.61
2024-04-16T12:01:17.701Z,48.51
2024-04-16T12:01:28.084Z,48.61
2024-04-16T12:01:38.343Z,48.61
2024-04-16T12:01:48.516Z,48.61
2024-04-16T12:01:58.853Z,48.61
2024-04-16T12:02:11.012Z,48.61
2024-04-16T12:02:19.634Z,48.61
2024-04-16T12:02:29.749Z,48.61
2024-04-16T12:02:40.027Z,48.51
2024-04-16T12:02:50.300Z,48.51
2024-04-16T12:03:00.563Z,48.51
2024-04-16T12:03:10.842Z,48.51
2024-04-16T12:03:21.141Z,48.41
2024-04-16T12:03:31.434Z,48.41
2024-04-16T12:03:41.864Z,48.41
2024-04-16T12:03:52.029Z,48.41
2024-04-16T12:04:02.516Z,48.51
2024-04-16T12:04:12.847Z,48.41
2024-04-16T12:04:22.975Z,48.41
2024-04-16T12:04:33.213Z,48.38
2024-04-16T12:04:43.504Z,48.38
2024-04-16T12:04:53.700Z,48.38
2024-04-16T12:05:04.075Z,48.28
2024-04-16T12:05:14.457Z,48.38
2024-04-16T12:05:24.882Z,48.38
2024-04-16T12:05:35.130Z,48.28
2024-04-16T12:05:45.303Z,48.38
2024-04-16T12:05:55.591Z,48.38
2024-04-16T12:06:05.883Z,48.38
2024-04-16T12:06:16.175Z,48.28
2024-04-16T12:06:26.544Z,48.28
2024-04-16T12:06:36.813Z,48.28
2024-04-16T12:06:47.074Z,48.28
2024-04-16T12:06:57.318Z,48.28
2024-04-16T12:07:07.595Z,48.28
2024-04-16T12:07:17.882Z,48.28
2024-04-16T12:07:28.183Z,48.28
2024-04-16T12:07:38.553Z,48.28
2024-04-16T12:07:48.681Z,48.28
2024-04-16T12:07:58.973Z,48.19
2024-04-16T12:08:11.811Z,48.19
2024-04-16T12:08:19.593Z,48.19
2024-04-16T12:08:29.868Z,48.19
2024-04-16T12:08:40.131Z,48.19
2024-04-16T12:08:50.404Z,48.19
2024-04-16T12:09:00.684Z,48.19
2024-04-16T12:09:10.940Z,48.19
2024-04-16T12:09:21.194Z,48.19
2024-04-16T12:09:31.451Z,48.19
2024-04-16T12:09:41.723Z,48.19
2024-04-16T12:09:51.980Z,48.08
2024-04-16T12:10:02.227Z,48.08
2024-04-16T12:10:12.547Z,48.08
2024-04-16T12:10:22.869Z,48.08
2024-04-16T12:10:33.161Z,48.08
2024-04-16T12:10:43.555Z,48.19
2024-04-16T12:10:53.700Z,48.19
2024-04-16T12:11:04.168Z,48.08
2024-04-16T12:11:14.229Z,48.08
2024-04-16T12:11:24.611Z,48.08
2024-04-16T12:11:34.887Z,48.08
2024-04-16T12:11:45.234Z,48.08
2024-04-16T12:11:55.522Z,48.08
2024-04-16T12:12:05.779Z,47.99
2024-04-16T12:12:16.047Z,48.08
2024-04-16T12:12:26.326Z,47.99
2024-04-16T12:12:36.590Z,47.96
2024-04-16T12:12:46.920Z,47.96
2024-04-16T12:12:57.197Z,47.96
2024-04-16T12:13:07.515Z,47.96
2024-04-16T12:13:17.674Z,47.96
2024-04-16T12:13:27.999Z,47.96
2024-04-16T12:13:38.343Z,47.86
2024-04-16T12:13:48.656Z,47.86
2024-04-16T12:13:58.936Z,47.86
2024-04-16T12:14:11.655Z,47.86
2024-04-16T12:14:19.578Z,47.86
2024-04-16T12:14:29.856Z,47.86
2024-04-16T12:14:40.145Z,47.86
2024-04-16T12:14:50.370Z,47.76
2024-04-16T12:15:00.628Z,47.66
2024-04-16T12:15:10.903Z,47.66
2024-04-16T12:15:21.163Z,47.66
2024-04-16T12:15:31.472Z,47.66
2024-04-16T12:15:41.737Z,47.66
2024-04-16T12:15:52.006Z,47.66
2024-04-16T12:16:02.268Z,47.66
2024-04-16T12:16:12.609Z,47.66
2024-04-16T12:16:22.894Z,47.56
2024-04-16T12:16:33.290Z,47.56
2024-04-16T12:16:43.635Z,47.56
2024-04-16T12:16:53.814Z,47.56
2024-04-16T12:17:04.013Z,47.56
2024-04-16T12:17:14.404Z,47.56
2024-04-16T12:17:24.781Z,47.46
2024-04-16T12:17:35.197Z,47.46
2024-04-16T12:17:45.358Z,47.44
2024-04-16T12:17:55.559Z,47.44
2024-04-16T12:18:05.872Z,47.34
2024-04-16T12:18:16.261Z,47.44
2024-04-16T12:18:26.376Z,47.34
2024-04-16T12:18:36.626Z,47.34
2024-04-16T12:18:47.045Z,47.34
2024-04-16T12:18:57.117Z,47.34
2024-04-16T12:19:07.416Z,47.34
2024-04-16T12:19:17.718Z,47.24
2024-04-16T12:19:28.018Z,47.24
2024-04-16T12:19:38.335Z,47.24
2024-04-16T12:19:48.667Z,47.24
2024-04-16T12:19:58.964Z,47.24
2024-04-16T12:20:11.625Z,47.24
2024-04-16T12:20:19.555Z,47.24
2024-04-16T12:20:29.820Z,47.24
2024-04-16T12:20:40.088Z,47.24
2024-04-16T12:20:50.358Z,47.14
2024-04-16T12:21:00.642Z,47.14
2024-04-16T12:21:10.914Z,47.14
2024-04-16T12:21:21.183Z,47.14
2024-04-16T12:21:31.481Z,47.14
2024-04-16T12:21:41.741Z,47.14
2024-04-16T12:21:52.026Z,47.14
2024-04-16T12:22:02.299Z,47.14
2024-04-16T12:22:12.597Z,47.04
2024-04-16T12:22:22.887Z,47.04
2024-04-16T12:22:33.237Z,47.04
2024-04-16T12:22:43.556Z,47.04
2024-04-16T12:22:53.866Z,47.04
2024-04-16T12:23:04.167Z,47.04
2024-04-16T12:23:14.456Z,47.04
2024-04-16T12:23:24.740Z,47.02
2024-04-16T12:23:35.040Z,47.04
2024-04-16T12:23:45.296Z,47.02
2024-04-16T12:23:55.566Z,46.92
2024-04-16T12:24:05.838Z,46.92
2024-04-16T12:24:16.105Z,46.92
2024-04-16T12:24:26.378Z,46.92
2024-04-16T12:24:36.640Z,46.92
2024-04-16T12:24:46.916Z,46.92
2024-04-16T12:24:57.184Z,46.92
2024-04-16T12:25:07.491Z,46.81
2024-04-16T12:25:17.802Z,46.81
2024-04-16T12:25:28.196Z,46.81
2024-04-16T12:25:38.521Z,46.81
2024-04-16T12:25:52.303Z,46.81
2024-04-16T12:25:59.165Z,46.81
2024-04-16T12:26:09.428Z,46.81
2024-04-16T12:26:19.711Z,46.72
2024-04-16T12:26:29.992Z,46.72
2024-04-16T12:26:40.301Z,46.72
2024-04-16T12:26:50.671Z,46.72
2024-04-16T12:27:00.873Z,46.72
2024-04-16T12:27:11.153Z,46.72
2024-04-16T12:27:21.424Z,46.72
2024-04-16T12:27:31.697Z,46.62
2024-04-16T12:27:41.964Z,46.72
2024-04-16T12:27:52.232Z,46.62
2024-04-16T12:28:02.525Z,46.72
2024-04-16T12:28:12.829Z,46.62
2024-04-16T12:28:23.166Z,46.62
2024-04-16T12:28:33.500Z,46.62
2024-04-16T12:28:43.838Z,46.62
2024-04-16T12:28:53.969Z,46.72
2024-04-16T12:29:04.245Z,46.62
2024-04-16T12:29:14.526Z,46.62
2024-04-16T12:29:24.797Z,46.62
2024-04-16T12:29:35.074Z,46.62
2024-04-16T12:29:45.425Z,46.62
2024-04-16T12:29:55.707Z,46.62
2024-04-16T12:30:05.970Z,46.62
2024-04-16T12:30:16.233Z,46.62
2024-04-16T12:30:26.510Z,46.50
2024-04-16T12:30:36.790Z,46.50
2024-04-16T12:30:47.061Z,46.50
2024-04-16T12:30:57.324Z,46.50
2024-04-16T12:31:07.666Z,46.50
2024-04-16T12:31:17.983Z,46.50
2024-04-16T12:31:28.349Z,46.50
2024-04-16T12:31:38.685Z,46.50
2024-04-16T12:31:49.009Z,46.50
2024-04-16T12:32:00.684Z,46.39
2024-04-16T12:32:09.471Z,46.39
2024-04-16T12:32:19.771Z,46.39
2024-04-16T12:32:30.171Z,46.39
2024-04-16T12:32:42.153Z,46.39
2024-04-16T12:32:58.417Z,46.39
2024-04-16T12:33:10.990Z,46.39
2024-04-16T12:33:15.995Z,46.39
2024-04-16T12:33:22.371Z,46.39
2024-04-16T12:33:31.638Z,46.39
2024-04-16T12:33:41.894Z,46.39
2024-04-16T12:33:52.043Z,46.39
2024-04-16T12:34:02.401Z,46.39
2024-04-16T12:34:12.714Z,46.39
2024-04-16T12:34:22.920Z,46.39
2024-04-16T12:34:33.248Z,46.30
2024-04-16T12:34:43.581Z,46.30
2024-04-16T12:34:53.916Z,46.30
2024-04-16T12:35:04.202Z,46.30
2024-04-16T12:35:14.488Z,46.30
2024-04-16T12:35:24.750Z,46.30
2024-04-16T12:35:35.014Z,46.30
2024-04-16T12:35:45.444Z,46.30
2024-04-16T12:35:55.583Z,46.30
2024-04-16T12:36:05.867Z,46.30
2024-04-16T12:36:16.146Z,46.30
2024-04-16T12:36:26.437Z,46.30
2024-04-16T12:36:36.708Z,46.39
2024-04-16T12:36:46.998Z,46.30
2024-04-16T12:36:57.396Z,46.30
2024-04-16T12:37:07.493Z,46.30
2024-04-16T12:37:17.784Z,46.30
2024-04-16T12:37:28.102Z,46.30
2024-04-16T12:37:38.417Z,46.39
2024-04-16T12:37:48.796Z,46.30
2024-04-16T12:37:59.060Z,46.39
2024-04-16T12:38:09.343Z,46.30
2024-04-16T12:38:19.612Z,46.30
2024-04-16T12:38:29.877Z,46.30
2024-04-16T12:38:40.142Z,46.30
2024-04-16T12:38:50.430Z,46.39
2024-04-16T12:39:00.710Z,46.30
2024-04-16T12:39:10.970Z,46.39
2024-04-16T12:39:21.259Z,46.39
2024-04-16T12:39:41.032Z,46.39
2024-04-16T12:39:41.911Z,46.39
2024-04-16T12:39:52.231Z,46.39
2024-04-16T12:40:02.594Z,46.30
2024-04-16T12:40:12.917Z,46.30
2024-04-16T12:40:25.869Z,46.30
2024-04-16T12:40:43.767Z,46.30
2024-04-16T12:40:54.142Z,46.30
2024-04-16T12:41:04.266Z,46.30
2024-04-16T12:41:14.602Z,46.30
2024-04-16T12:41:24.900Z,46.30
2024-04-16T12:41:35.207Z,46.30
2024-04-16T12:41:45.536Z,46.30
2024-04-16T12:41:55.840Z,46.30
2024-04-16T12:42:06.151Z,46.30
2024-04-16T12:42:16.437Z,46.30
2024-04-16T12:42:26.744Z,46.30
2024-04-16T12:42:37.018Z,46.30
2024-04-16T12:42:47.310Z,46.30
2024-04-16T12:42:57.620Z,46.30
2024-04-16T12:43:08.035Z,46.30
2024-04-16T12:43:18.205Z,46.30
2024-04-16T12:43:28.581Z,46.30
2024-04-16T12:43:38.758Z,46.30
2024-04-16T12:43:49.092Z,46.30
2024-04-16T12:43:59.395Z,46.30
2024-04-16T12:44:09.688Z,46.30
2024-04-16T12:44:19.988Z,46.27
2024-04-16T12:44:30.271Z,46.27
2024-04-16T12:44:40.580Z,46.30
2024-04-16T12:44:50.859Z,46.27
2024-04-16T12:45:01.175Z,46.27
2024-04-16T12:45:11.531Z,46.27
2024-04-16T12:45:21.852Z,46.27
2024-04-16T12:45:32.186Z,46.27
2024-04-16T12:45:42.526Z,46.27
2024-04-16T12:45:56.371Z,46.30
2024-04-16T12:46:03.173Z,46.27
2024-04-16T12:46:13.501Z,46.27
2024-04-16T12:46:23.820Z,46.27
2024-04-16T12:46:34.178Z,46.27
2024-04-16T12:46:44.599Z,46.27
2024-04-16T12:46:55.514Z,46.27
2024-04-16T12:47:05.071Z,46.27
2024-04-16T12:47:15.414Z,46.27
2024-04-16T12:47:25.781Z,46.27
2024-04-16T12:47:36.142Z,46.27
2024-04-16T12:47:46.517Z,46.27
2024-04-16T12:47:56.912Z,46.27
2024-04-16T12:48:07.158Z,46.27
2024-04-16T12:48:17.482Z,46.27
2024-04-16T12:48:27.783Z,46.27
2024-04-16T12:48:38.018Z,46.27
2024-04-16T12:48:48.195Z,46.27
2024-04-16T12:48:58.508Z,46.17
2024-04-16T12:49:08.858Z,46.17
2024-04-16T12:49:19.191Z,46.27
2024-04-16T12:49:29.547Z,46.27
2024-04-16T12:49:39.900Z,46.27
2024-04-16T12:51:04.776Z,46.27
2024-04-16T12:51:15.049Z,46.17
2024-04-16T12:51:25.317Z,46.17
2024-04-16T12:51:35.578Z,46.17
2024-04-16T12:51:45.876Z,46.17
2024-04-16T12:51:56.139Z,46.17
2024-04-16T12:52:06.410Z,46.17
2024-04-16T12:52:16.708Z,46.17
2024-04-16T12:52:27.035Z,46.17
2024-04-16T12:52:37.428Z,46.17
2024-04-16T12:52:47.632Z,46.17
2024-04-16T12:52:57.922Z,46.17
2024-04-16T12:53:08.186Z,46.17
2024-04-16T12:53:18.456Z,46.17
2024-04-16T12:53:28.720Z,46.17
2024-04-16T12:53:39.030Z,46.17
2024-04-16T12:53:49.307Z,46.17
2024-04-16T12:53:59.652Z,46.17
2024-04-16T12:54:09.912Z,46.17
2024-04-16T12:54:20.177Z,46.17
2024-04-16T12:54:30.444Z,46.17
2024-04-16T12:54:40.717Z,46.17
2024-04-16T12:54:50.984Z,46.17
2024-04-16T12:55:01.327Z,46.17
2024-04-16T12:55:11.614Z,46.17
2024-04-16T12:55:21.918Z,46.17
2024-04-16T12:55:32.321Z,46.17
2024-04-16T12:55:42.605Z,46.27
2024-04-16T12:55:52.816Z,46.17
2024-04-16T12:56:03.107Z,46.17
2024-04-16T12:56:13.368Z,46.27
2024-04-16T12:56:23.631Z,46.27
2024-04-16T12:56:33.931Z,46.27
2024-04-16T12:56:44.190Z,46.27
2024-04-16T12:56:54.464Z,46.27
2024-04-16T12:57:04.720Z,46.27
2024-04-16T12:57:15.001Z,46.27
2024-04-16T12:57:25.292Z,46.27
2024-04-16T12:57:35.579Z,46.27
2024-04-16T12:57:45.863Z,46.27
2024-04-16T12:57:56.129Z,46.27
2024-04-16T12:58:06.415Z,46.27
2024-04-16T12:58:16.706Z,46.27
2024-04-16T12:58:27.032Z,46.27
2024-04-16T12:58:37.389Z,46.37
2024-04-16T12:58:47.739Z,46.27
2024-04-16T12:58:57.876Z,46.27
2024-04-16T12:59:08.151Z,46.27
2024-04-16T12:59:18.416Z,46.27
2024-04-16T12:59:28.689Z,46.27
2024-04-16T12:59:38.957Z,46.27
2024-04-16T12:59:49.223Z,46.27
2024-04-16T12:59:59.523Z,46.27
2024-04-16T13:00:09.811Z,46.27
2024-04-16T13:00:20.082Z,46.27
2024-04-16T13:00:30.396Z,46.27
2024-04-16T13:00:40.723Z,46.27
2024-04-16T13:00:51.063Z,46.27
2024-04-16T13:01:01.380Z,46.27
2024-04-16T13:01:11.721Z,46.27
2024-04-16T13:01:22.061Z,46.27
2024-04-16T13:01:32.347Z,46.27
2024-04-16T13:01:42.701Z,46.27
2024-04-16T13:01:52.961Z,46.27
2024-04-16T13:02:03.148Z,46.27
2024-04-16T13:02:13.502Z,46.27
2024-04-16T13:02:23.812Z,46.27
2024-04-16T13:02:34.094Z,46.27
2024-04-16T13:02:44.416Z,46.27
2024-04-16T13:02:55.594Z,46.27
2024-04-16T13:03:04.882Z,46.27
2024-04-16T13:03:15.152Z,46.27
2024-04-16T13:03:25.492Z,46.27
2024-04-16T13:03:35.810Z,46.27
2024-04-16T13:03:46.125Z,46.27
2024-04-16T13:03:56.466Z,46.27
2024-04-16T13:04:06.703Z,46.27
2024-04-16T13:04:17.023Z,46.27
2024-04-16T13:04:27.340Z,46.27
2024-04-16T13:04:37.645Z,46.27
2024-04-16T13:04:47.953Z,46.27
2024-04-16T13:04:58.228Z,46.27
2024-04-16T13:05:08.530Z,46.27
2024-04-16T13:05:18.810Z,46.27
2024-04-16T13:05:29.079Z,46.27
2024-04-16T13:05:39.356Z,46.27
2024-04-16T13:05:49.646Z,46.27
2024-04-16T13:05:59.916Z,46.17
2024-04-16T13:06:10.181Z,46.17
2024-04-16T13:06:20.459Z,46.17
2024-04-16T13:06:30.736Z,46.17
2024-04-16T13:06:41.012Z,46.17
2024-04-16T13:06:51.281Z,46.17
2024-04-16T13:07:01.541Z,46.17
2024-04-16T13:07:11.821Z,46.17
2024-04-16T13:07:22.138Z,46.17
2024-04-16T13:07:32.545Z,46.17
2024-04-16T13:07:42.749Z,46.17
2024-04-16T13:07:52.992Z,46.17
2024-04-16T13:08:03.255Z,46.17
2024-04-16T13:08:16.039Z,46.17
2024-04-16T13:08:23.820Z,46.17
2024-04-16T13:08:34.105Z,46.17
2024-04-16T13:08:44.371Z,46.17
2024-04-16T13:08:54.648Z,46.17
2024-04-16T13:09:04.911Z,46.15
2024-04-16T13:09:15.186Z,46.17
2024-04-16T13:09:25.457Z,46.17
2024-04-16T13:09:35.724Z,46.05
2024-04-16T13:09:46.010Z,46.05
2024-04-16T13:09:56.302Z,46.05
2024-04-16T13:10:06.579Z,46.05
2024-04-16T13:10:17.042Z,46.05
2024-04-16T13:10:27.321Z,46.05
2024-04-16T13:10:37.515Z,46.05
2024-04-16T13:10:47.718Z,46.05
2024-04-16T13:10:57.934Z,46.05
2024-04-16T13:11:08.249Z,46.05
2024-04-16T13:11:18.552Z,46.05
2024-04-16T13:11:28.876Z,46.15
2024-04-16T13:11:39.174Z,46.05
2024-04-16T13:11:49.532Z,46.05
2024-04-16T13:11:59.798Z,46.05
2024-04-16T13:12:10.067Z,46.05
2024-04-16T13:12:20.365Z,46.05
2024-04-16T13:12:30.647Z,46.05
2024-04-16T13:12:40.902Z,46.05
2024-04-16T13:12:51.169Z,46.05
2024-04-16T13:13:01.463Z,46.05
2024-04-16T13:13:11.749Z,46.05
2024-04-16T13:13:22.112Z,46.05
2024-04-16T13:13:32.344Z,46.05
2024-04-16T13:13:42.646Z,46.05
2024-04-16T13:13:53.008Z,46.05
2024-04-16T13:14:03.321Z,46.05
2024-04-16T13:14:13.613Z,46.05
2024-04-16T13:14:23.887Z,46.05
2024-04-16T13:14:34.158Z,46.05
2024-04-16T13:14:44.415Z,46.05
2024-04-16T13:14:54.691Z,46.05
2024-04-16T13:15:04.963Z,46.05
2024-04-16T13:15:15.238Z,46.05
2024-04-16T13:15:25.512Z,46.05
2024-04-16T13:15:35.833Z,46.05
2024-04-16T13:15:46.164Z,46.05
2024-04-16T13:15:56.436Z,46.05
2024-04-16T13:16:06.715Z,46.05
2024-04-16T13:16:17.034Z,46.05
2024-04-16T13:16:27.338Z,46.05
2024-04-16T13:16:37.631Z,46.05
2024-04-16T13:16:47.987Z,46.05
2024-04-16T13:16:58.295Z,46.15
2024-04-16T13:17:08.584Z,46.05
2024-04-16T13:17:18.850Z,46.05
2024-04-16T13:17:29.182Z,45.85
2024-04-16T13:17:39.571Z,45.85
2024-04-16T13:17:49.931Z,45.85
2024-04-16T13:18:00.332Z,45.85
2024-04-16T13:18:10.761Z,45.95
2024-04-16T13:18:20.798Z,45.95
2024-04-16T13:18:31.190Z,45.95
2024-04-16T13:18:41.568Z,45.95
2024-04-16T13:18:51.743Z,45.95
2024-04-16T13:19:02.051Z,46.05
2024-04-16T13:19:12.352Z,46.05
2024-04-16T13:19:22.642Z,45.95
2024-04-16T13:19:32.928Z,45.95
2024-04-16T13:19:43.220Z,45.95
2024-04-16T13:19:54.265Z,45.95
2024-04-16T13:20:03.735Z,45.95
2024-04-16T13:20:14.030Z,45.95
2024-04-16T13:20:24.313Z,45.95
2024-04-16T13:20:34.607Z,45.95
2024-04-16T13:20:44.877Z,45.95
2024-04-16T13:20:55.139Z,45.95
2024-04-16T13:21:05.509Z,45.95
2024-04-16T13:21:15.813Z,45.95
2024-04-16T13:21:26.094Z,45.95
2024-04-16T13:21:36.355Z,45.95
2024-04-16T13:21:46.629Z,45.85
2024-04-16T13:21:56.908Z,45.95
2024-04-16T13:22:07.196Z,45.95
2024-04-16T13:22:17.478Z,45.85
2024-04-16T13:22:27.919Z,45.85
2024-04-16T13:22:38.077Z,45.85
2024-04-16T13:22:48.378Z,45.85
2024-04-16T13:22:58.656Z,45.85
2024-04-16T13:23:08.960Z,45.85
2024-04-16T13:23:19.229Z,45.85
2024-04-16T13:23:29.515Z,45.85
2024-04-16T13:23:39.790Z,45.85
2024-04-16T13:23:50.099Z,45.85
2024-04-16T13:24:00.358Z,45.85
2024-04-16T13:24:10.624Z,45.85
2024-04-16T13:24:20.907Z,45.85
2024-04-16T13:24:31.178Z,45.85
2024-04-16T13:24:41.482Z,45.85
2024-04-16T13:24:51.762Z,45.85
2024-04-16T13:25:02.044Z,45.85
2024-04-16T13:25:12.377Z,45.85
2024-04-16T13:25:22.725Z,45.85
2024-04-16T13:25:33.058Z,45.85
2024-04-16T13:25:43.444Z,45.85
2024-04-16T13:25:56.104Z,45.85
2024-04-16T13:26:03.835Z,45.85
2024-04-16T13:26:14.127Z,45.75
2024-04-16T13:26:24.406Z,45.75
2024-04-16T13:26:34.671Z,45.75
2024-04-16T13:26:44.967Z,45.75
2024-04-16T13:26:55.264Z,45.75
2024-04-16T13:27:05.525Z,45.75
2024-04-16T13:27:15.794Z,45.75
2024-04-16T13:27:26.064Z,45.75
2024-04-16T13:27:36.331Z,45.75
2024-04-16T13:27:46.611Z,45.75
2024-04-16T13:27:56.880Z,45.75
2024-04-16T13:28:07.153Z,45.65
2024-04-16T13:28:17.520Z,45.65
2024-04-16T13:28:27.837Z,45.65
2024-04-16T13:28:38.194Z,45.75
2024-04-16T13:28:48.430Z,45.65
2024-04-16T13:28:58.748Z,45.65
2024-04-16T13:29:09.030Z,45.65
2024-04-16T13:29:22.001Z,45.65
2024-04-16T13:29:29.683Z,45.65
2024-04-16T13:29:39.953Z,45.65
2024-04-16T13:29:50.215Z,45.65
2024-04-16T13:30:00.504Z,45.55
2024-04-16T13:30:10.831Z,45.65
2024-04-16T13:30:21.116Z,45.65
2024-04-16T13:30:31.398Z,45.55
2024-04-16T13:30:41.687Z,45.55
2024-04-16T13:30:52.000Z,45.65
2024-04-16T13:31:02.285Z,45.65
2024-04-16T13:31:12.569Z,45.55
2024-04-16T13:31:22.898Z,45.55
2024-04-16T13:31:33.216Z,45.65
2024-04-16T13:31:43.512Z,45.65
2024-04-16T13:31:53.851Z,45.65
2024-04-16T13:32:04.135Z,45.65
2024-04-16T13:32:14.457Z,45.55
2024-04-16T13:32:24.802Z,45.65
2024-04-16T13:32:35.007Z,45.65
2024-04-16T13:32:45.377Z,45.65
2024-04-16T13:32:55.609Z,45.65
2024-04-16T13:33:05.785Z,45.65
2024-04-16T13:33:16.023Z,45.65
2024-04-16T13:33:26.327Z,45.65
2024-04-16T13:33:36.609Z,45.65
2024-04-16T13:33:46.876Z,45.65
2024-04-16T13:33:57.163Z,45.75
2024-04-16T13:34:07.435Z,45.75
2024-04-16T13:34:17.724Z,45.75
2024-04-16T13:34:28.084Z,45.75
2024-04-16T13:34:38.290Z,45.75
2024-04-16T13:34:51.350Z,45.75
2024-04-16T13:35:00.388Z,45.75
2024-04-16T13:35:09.025Z,45.75
2024-04-16T13:35:19.292Z,45.75
2024-04-16T13:35:29.557Z,45.75
2024-04-16T13:35:39.842Z,45.75
2024-04-16T13:35:50.101Z,45.75
2024-04-16T13:36:00.391Z,45.75
2024-04-16T13:36:10.719Z,45.75
2024-04-16T13:36:21.001Z,45.75
2024-04-16T13:36:31.270Z,45.75
2024-04-16T13:36:41.612Z,45.75
2024-04-16T13:36:51.879Z,45.85
2024-04-16T13:37:02.154Z,45.85
2024-04-16T13:37:12.566Z,45.85
2024-04-16T13:37:22.959Z,45.85
2024-04-16T13:37:33.107Z,45.85
2024-04-16T13:37:43.377Z,45.85
2024-04-16T13:37:53.537Z,45.85
2024-04-16T13:38:03.828Z,45.85
2024-04-16T13:38:14.088Z,45.85
2024-04-16T13:38:24.383Z,45.85
2024-04-16T13:38:34.688Z,45.85
2024-04-16T13:38:44.954Z,45.95
2024-04-16T13:38:55.238Z,45.95
2024-04-16T13:39:05.503Z,45.95
2024-04-16T13:39:15.775Z,45.95
2024-04-16T13:39:26.075Z,45.95
2024-04-16T13:39:36.386Z,45.95
2024-04-16T13:39:46.657Z,45.95
2024-04-16T13:39:56.945Z,45.95
2024-04-16T13:40:09.814Z,45.95
2024-04-16T13:40:17.667Z,45.95
2024-04-16T13:40:27.841Z,45.95
2024-04-16T13:40:38.187Z,45.95
2024-04-16T13:40:48.511Z,46.05
2024-04-16T13:40:58.819Z,46.05
2024-04-16T13:41:09.107Z,46.05
2024-04-16T13:41:19.398Z,46.05
2024-04-16T13:41:29.659Z,46.05
2024-04-16T13:41:39.927Z,46.05
2024-04-16T13:41:50.238Z,46.05
2024-04-16T13:42:00.497Z,45.95
2024-04-16T13:42:10.775Z,46.05
2024-04-16T13:42:21.043Z,46.05
2024-04-16T13:42:31.325Z,46.05
2024-04-16T13:42:41.584Z,46.05
2024-04-16T13:42:51.864Z,46.05
2024-04-16T13:43:02.131Z,46.05
2024-04-16T13:43:12.455Z,46.05
2024-04-16T13:43:22.747Z,46.05
2024-04-16T13:43:33.067Z,46.05
2024-04-16T13:43:43.396Z,46.05
2024-04-16T13:43:53.699Z,46.05
2024-04-16T13:44:03.958Z,46.05
2024-04-16T13:44:14.220Z,46.05
2024-04-16T13:44:24.489Z,46.05
2024-04-16T13:44:34.764Z,46.15
2024-04-16T13:44:45.047Z,46.15
2024-04-16T13:44:55.328Z,46.05
2024-04-16T13:45:05.585Z,46.15
2024-04-16T13:45:15.884Z,46.05
2024-04-16T13:45:26.198Z,46.15
2024-04-16T13:45:37.018Z,46.05
2024-04-16T13:45:46.705Z,46.15
2024-04-16T13:45:57.007Z,46.15
2024-04-16T13:46:07.292Z,46.15
2024-04-16T13:46:17.575Z,46.15
2024-04-16T13:46:27.872Z,46.15
2024-04-16T13:46:38.228Z,46.15
2024-04-16T13:46:48.419Z,46.15
2024-04-16T13:46:58.701Z,46.15
2024-04-16T13:47:09.106Z,46.15
2024-04-16T13:47:19.436Z,46.15
2024-04-16T13:47:29.716Z,46.15
2024-04-16T13:47:39.889Z,46.15